createdAt,value
2019-03-22T00:01:01.202Z,59.75
2019-03-22T00:02:06.897Z,58.60
2019-03-22T00:03:12.530Z,56.80
2019-03-22T00:04:18.370Z,54.85
2019-03-22T00:05:25.105Z,55.58
2019-03-22T00:06:30.669Z,56.70
2019-03-22T00:07:36.578Z,55.85
2019-03-22T00:08:42.357Z,63.28
2019-03-22T00:09:48.203Z,54.03
2019-03-22T00:10:54.165Z,57.40
2019-03-22T00:12:04.190Z,58.68
2019-03-22T00:13:09.353Z,53.40
2019-03-22T00:14:15.025Z,60.08
2019-03-22T00:15:20.741Z,55.55
2019-03-22T00:16:26.544Z,59.45
2019-03-22T00:17:32.762Z,59.93
2019-03-22T00:18:38.343Z,56.25
2019-03-22T00:19:43.965Z,54.45
2019-03-22T00:20:49.902Z,58.02
2019-03-22T00:21:55.651Z,53.50
2019-03-22T00:23:01.200Z,57.38
2019-03-22T00:24:06.820Z,55.03
2019-03-22T00:25:12.682Z,62.35
2019-03-22T00:26:18.305Z,57.58
2019-03-22T00:27:23.991Z,55.88
2019-03-22T00:28:29.574Z,63.35
2019-03-22T00:29:35.249Z,55.58
2019-03-22T00:30:41.160Z,69.00
2019-03-22T00:31:46.721Z,54.18
2019-03-22T00:32:54.062Z,59.55
2019-03-22T00:34:00.359Z,53.75
2019-03-22T00:35:06.800Z,52.62
2019-03-22T00:36:12.782Z,54.10
2019-03-22T00:37:18.401Z,56.08
2019-03-22T00:38:24.239Z,63.63
2019-03-22T00:39:29.955Z,56.68
2019-03-22T00:40:35.842Z,58.00
2019-03-22T00:41:41.599Z,54.10
2019-03-22T00:42:47.451Z,58.95
2019-03-22T00:43:53.122Z,54.03
2019-03-22T00:44:58.812Z,58.78
2019-03-22T00:46:04.508Z,55.75
2019-03-22T00:47:10.278Z,57.95
2019-03-22T00:48:15.937Z,59.30
2019-03-22T00:49:21.797Z,53.40
2019-03-22T00:50:27.734Z,51.13
2019-03-22T00:51:33.312Z,59.73
2019-03-22T00:52:39.301Z,57.05
2019-03-22T00:53:44.907Z,56.20
2019-03-22T00:54:50.608Z,66.77
2019-03-22T00:55:56.191Z,60.95
2019-03-22T00:57:02.096Z,50.50
2019-03-22T00:58:08.203Z,56.18
2019-03-22T00:59:14.067Z,62.20
2019-03-22T01:00:19.779Z,57.83
2019-03-22T01:01:25.860Z,58.05
2019-03-22T01:02:31.538Z,57.48
2019-03-22T01:03:39.660Z,58.38
2019-03-22T01:04:45.285Z,59.30
2019-03-22T01:05:50.937Z,51.80
2019-03-22T01:06:56.613Z,56.42
2019-03-22T01:08:02.924Z,58.80
2019-03-22T01:09:08.585Z,54.25
2019-03-22T01:10:14.612Z,60.03
2019-03-22T01:11:20.356Z,58.92
2019-03-22T01:12:26.316Z,61.00
2019-03-22T01:13:32.297Z,56.70
2019-03-22T01:14:38.011Z,49.65
2019-03-22T01:15:43.601Z,55.63
2019-03-22T01:16:49.229Z,55.00
2019-03-22T01:17:54.888Z,51.37
2019-03-22T01:19:00.532Z,54.08
2019-03-22T01:20:06.891Z,49.83
2019-03-22T01:21:12.576Z,56.73
2019-03-22T01:22:18.261Z,53.25
2019-03-22T01:23:23.826Z,59.30
2019-03-22T01:24:29.358Z,54.85
2019-03-22T01:25:35.281Z,57.03
2019-03-22T01:26:41.576Z,56.92
2019-03-22T01:27:47.525Z,62.95
2019-03-22T01:28:53.159Z,58.80
2019-03-22T01:29:58.792Z,60.33
2019-03-22T01:31:05.208Z,60.35
2019-03-22T01:32:10.855Z,52.20
2019-03-22T01:33:17.121Z,51.98
2019-03-22T01:34:22.761Z,57.90
2019-03-22T01:35:28.610Z,55.65
2019-03-22T01:36:34.496Z,57.23
2019-03-22T01:37:40.149Z,56.53
2019-03-22T01:38:45.787Z,54.03
2019-03-22T01:39:51.320Z,54.70
2019-03-22T01:40:56.903Z,59.15
2019-03-22T01:42:02.489Z,55.65
2019-03-22T01:43:08.719Z,52.62
2019-03-22T01:44:14.505Z,54.77
2019-03-22T01:45:20.633Z,50.65
2019-03-22T01:46:26.256Z,57.43
2019-03-22T01:47:32.299Z,58.00
2019-03-22T01:48:37.817Z,48.83
2019-03-22T01:49:43.691Z,53.38
2019-03-22T01:50:49.212Z,50.80
2019-03-22T01:51:55.327Z,55.55
2019-03-22T01:53:00.930Z,51.95
2019-03-22T01:54:06.492Z,52.55
2019-03-22T01:55:15.378Z,55.55
2019-03-22T01:56:20.929Z,52.55
2019-03-22T01:57:26.579Z,47.43
2019-03-22T01:58:32.146Z,59.85
2019-03-22T01:59:37.947Z,61.63
2019-03-22T02:00:43.669Z,59.90
2019-03-22T02:01:49.355Z,55.30
2019-03-22T02:02:55.051Z,56.77
2019-03-22T02:04:00.720Z,53.17
2019-03-22T02:05:06.789Z,54.98
2019-03-22T02:06:12.810Z,49.10
2019-03-22T02:07:18.512Z,50.43
2019-03-22T02:08:24.155Z,53.78
2019-03-22T02:09:29.729Z,52.88
2019-03-22T02:10:35.468Z,54.10
2019-03-22T02:11:41.346Z,56.35
2019-03-22T02:12:47.032Z,51.23
2019-03-22T02:13:53.052Z,50.70
2019-03-22T02:14:58.661Z,53.05
2019-03-22T02:16:04.339Z,50.92
2019-03-22T02:17:10.069Z,56.63
2019-03-22T02:18:15.932Z,52.98
2019-03-22T02:19:21.907Z,46.68
2019-03-22T02:20:27.636Z,53.23
2019-03-22T02:21:34.034Z,54.20
2019-03-22T02:22:39.722Z,51.65
2019-03-22T02:23:45.217Z,62.27
2019-03-22T02:24:50.750Z,51.50
2019-03-22T02:25:56.384Z,49.70
2019-03-22T02:27:01.981Z,56.18
2019-03-22T02:28:07.831Z,52.17
2019-03-22T02:29:13.474Z,67.47
2019-03-22T02:30:19.449Z,46.37
2019-03-22T02:31:24.962Z,55.38
2019-03-22T02:32:30.826Z,53.52
2019-03-22T02:33:36.732Z,52.93
2019-03-22T02:34:42.510Z,51.13
2019-03-22T02:35:48.394Z,53.95
2019-03-22T02:36:54.779Z,48.55
2019-03-22T02:38:00.601Z,49.67
2019-03-22T02:39:07.427Z,56.77
2019-03-22T02:40:13.474Z,57.83
2019-03-22T02:41:19.090Z,53.42
2019-03-22T02:42:24.717Z,57.17
2019-03-22T02:43:30.758Z,49.00
2019-03-22T02:44:36.666Z,49.00
2019-03-22T02:45:42.859Z,52.17
2019-03-22T02:46:50.917Z,49.80
2019-03-22T02:47:56.567Z,49.27
2019-03-22T02:49:02.148Z,46.92
2019-03-22T02:50:18.091Z,54.03
2019-03-22T02:51:16.360Z,51.18
2019-03-22T02:52:21.891Z,52.17
2019-03-22T02:53:27.488Z,49.30
2019-03-22T02:54:33.382Z,50.23
2019-03-22T02:55:39.507Z,55.12
2019-03-22T02:56:46.125Z,45.60
2019-03-22T02:57:51.777Z,57.23
2019-03-22T02:58:59.350Z,53.42
2019-03-22T03:00:05.981Z,55.45
2019-03-22T03:01:12.023Z,48.10
2019-03-22T03:02:17.729Z,49.08
2019-03-22T03:03:23.436Z,44.25
2019-03-22T03:04:29.435Z,37.08
2019-03-22T03:05:35.503Z,46.13
2019-03-22T03:06:41.161Z,38.17
2019-03-22T03:07:46.940Z,38.05
2019-03-22T03:08:52.600Z,46.00
2019-03-22T03:09:58.873Z,49.95
2019-03-22T03:11:05.023Z,39.67
2019-03-22T03:12:10.770Z,38.55
2019-03-22T03:13:16.802Z,45.58
2019-03-22T03:14:22.849Z,38.88
2019-03-22T03:15:28.512Z,34.48
2019-03-22T03:16:34.278Z,42.85
2019-03-22T03:17:39.978Z,41.95
2019-03-22T03:18:45.717Z,44.83
2019-03-22T03:19:51.371Z,37.40
2019-03-22T03:20:57.096Z,39.08
2019-03-22T03:22:02.765Z,37.85
2019-03-22T03:23:08.823Z,35.88
2019-03-22T03:24:14.501Z,33.20
2019-03-22T03:25:20.156Z,29.70
2019-03-22T03:26:25.905Z,42.15
2019-03-22T03:27:31.840Z,31.17
2019-03-22T03:28:37.815Z,35.48
2019-03-22T03:29:43.746Z,30.40
2019-03-22T03:30:49.363Z,29.02
2019-03-22T03:31:55.402Z,33.63
2019-03-22T03:33:01.197Z,35.43
2019-03-22T03:34:06.877Z,28.98
2019-03-22T03:35:12.784Z,30.12
2019-03-22T03:36:18.595Z,27.20
2019-03-22T03:37:25.064Z,37.00
2019-03-22T03:38:34.058Z,34.00
2019-03-22T03:39:39.754Z,41.55
2019-03-22T03:40:45.514Z,30.08
2019-03-22T03:41:51.813Z,32.48
2019-03-22T03:42:57.985Z,32.80
2019-03-22T03:44:03.921Z,28.00
2019-03-22T03:45:18.420Z,31.85
2019-03-22T03:46:24.113Z,32.48
2019-03-22T03:47:29.834Z,26.52
2019-03-22T03:48:36.296Z,28.02
2019-03-22T03:49:42.435Z,27.45
2019-03-22T03:50:48.448Z,29.30
2019-03-22T03:51:54.167Z,27.40
2019-03-22T03:53:00.043Z,31.55
2019-03-22T03:54:05.704Z,30.20
2019-03-22T03:55:11.479Z,36.85
2019-03-22T03:56:17.170Z,35.15
2019-03-22T03:57:22.878Z,34.00
2019-03-22T03:58:28.777Z,28.60
2019-03-22T03:59:34.353Z,31.45
2019-03-22T04:00:40.154Z,48.33
2019-03-22T04:01:46.217Z,34.38
2019-03-22T04:02:51.894Z,31.57
2019-03-22T04:03:57.956Z,35.20
2019-03-22T04:05:03.641Z,41.75
2019-03-22T04:06:09.412Z,31.27
2019-03-22T04:07:15.058Z,30.52
2019-03-22T04:08:20.644Z,34.65
2019-03-22T04:09:26.575Z,34.55
2019-03-22T04:10:32.161Z,29.90
2019-03-22T04:11:38.014Z,34.13
2019-03-22T04:12:43.992Z,41.85
2019-03-22T04:13:49.530Z,38.67
2019-03-22T04:14:55.152Z,28.20
2019-03-22T04:16:03.309Z,31.87
2019-03-22T04:17:08.951Z,30.65
2019-03-22T04:18:14.588Z,31.02
2019-03-22T04:19:20.133Z,29.20
2019-03-22T04:20:25.801Z,33.88
2019-03-22T04:21:31.391Z,28.67
2019-03-22T04:22:36.896Z,32.85
2019-03-22T04:23:42.666Z,28.38
2019-03-22T04:24:48.191Z,30.92
2019-03-22T04:25:53.923Z,32.50
2019-03-22T04:26:59.734Z,33.88
2019-03-22T04:28:05.467Z,31.97
2019-03-22T04:29:11.295Z,31.10
2019-03-22T04:30:16.883Z,30.30
2019-03-22T04:31:22.827Z,31.77
2019-03-22T04:32:29.152Z,36.30
2019-03-22T04:33:34.830Z,31.48
2019-03-22T04:34:40.848Z,38.42
2019-03-22T04:35:46.851Z,29.95
2019-03-22T04:36:53.039Z,32.53
2019-03-22T04:37:59.105Z,30.62
2019-03-22T04:39:06.851Z,32.88
2019-03-22T04:40:25.229Z,34.18
2019-03-22T04:41:31.019Z,31.27
2019-03-22T04:42:36.718Z,29.55
2019-03-22T04:43:42.456Z,30.12
2019-03-22T04:44:48.594Z,33.85
2019-03-22T04:45:54.875Z,28.90
2019-03-22T04:47:00.999Z,28.55
2019-03-22T04:48:21.559Z,31.77
2019-03-22T04:49:28.202Z,31.05
2019-03-22T04:50:37.356Z,41.75
2019-03-22T04:51:43.562Z,31.20
2019-03-22T04:52:50.008Z,35.65
2019-03-22T04:54:02.753Z,28.25
2019-03-22T04:55:09.197Z,34.65
2019-03-22T04:56:17.636Z,33.75
2019-03-22T04:57:24.862Z,38.73
2019-03-22T04:58:31.883Z,32.63
2019-03-22T04:59:39.398Z,36.33
2019-03-22T05:00:45.901Z,29.18
2019-03-22T05:01:53.825Z,35.40
2019-03-22T05:03:00.585Z,32.60
2019-03-22T05:04:08.480Z,34.30
2019-03-22T05:05:15.178Z,30.27
2019-03-22T05:06:21.939Z,30.02
2019-03-22T05:07:28.026Z,29.67
2019-03-22T05:08:37.352Z,34.98
2019-03-22T05:09:44.401Z,36.28
2019-03-22T05:10:50.741Z,37.83
2019-03-22T05:11:58.330Z,34.95
2019-03-22T05:13:05.120Z,32.63
2019-03-22T05:14:12.055Z,32.20
2019-03-22T05:15:19.777Z,30.60
2019-03-22T05:16:25.604Z,37.00
2019-03-22T05:17:32.625Z,31.93
2019-03-22T05:18:39.661Z,30.72
2019-03-22T05:19:49.746Z,34.08
2019-03-22T05:20:56.222Z,35.35
2019-03-22T05:22:03.431Z,31.55
2019-03-22T05:23:09.960Z,33.00
2019-03-22T05:24:18.421Z,32.73
2019-03-22T05:25:25.608Z,28.42
2019-03-22T05:26:34.514Z,34.30
2019-03-22T05:27:43.880Z,31.17
2019-03-22T05:28:50.979Z,40.58
2019-03-22T05:29:59.329Z,36.25
2019-03-22T05:31:41.947Z,30.75
2019-03-22T05:32:47.665Z,29.23
2019-03-22T05:33:53.313Z,31.80
2019-03-22T05:34:59.089Z,31.85
2019-03-22T05:36:05.039Z,31.52
2019-03-22T05:37:10.756Z,29.65
2019-03-22T05:38:16.384Z,36.63
2019-03-22T05:39:22.334Z,39.13
2019-03-22T05:40:27.975Z,34.23
2019-03-22T05:41:34.143Z,33.90
2019-03-22T05:42:39.673Z,29.55
2019-03-22T05:43:45.359Z,32.80
2019-03-22T05:44:51.608Z,27.07
2019-03-22T05:45:57.460Z,30.80
2019-03-22T05:47:03.154Z,36.17
2019-03-22T05:48:09.463Z,26.25
2019-03-22T05:49:15.093Z,32.40
2019-03-22T05:50:20.735Z,30.60
2019-03-22T05:51:26.790Z,29.85
2019-03-22T05:52:32.397Z,37.58
2019-03-22T05:53:38.002Z,35.65
2019-03-22T05:54:43.957Z,32.28
2019-03-22T05:55:49.871Z,39.23
2019-03-22T05:56:55.941Z,38.88
2019-03-22T05:58:02.242Z,35.35
2019-03-22T05:59:07.888Z,30.50
2019-03-22T06:00:15.422Z,34.60
2019-03-22T06:01:21.055Z,28.60
2019-03-22T06:02:26.790Z,38.17
2019-03-22T06:03:32.347Z,32.80
2019-03-22T06:04:38.073Z,37.85
2019-03-22T06:05:43.841Z,30.90
2019-03-22T06:06:49.490Z,30.80
2019-03-22T06:07:55.010Z,34.43
2019-03-22T06:09:00.688Z,31.33
2019-03-22T06:10:06.910Z,30.00
2019-03-22T06:11:12.502Z,30.82
2019-03-22T06:12:18.097Z,33.30
2019-03-22T06:13:24.049Z,30.17
2019-03-22T06:14:29.786Z,27.00
2019-03-22T06:15:35.910Z,32.03
2019-03-22T06:16:41.508Z,35.05
2019-03-22T06:17:51.889Z,29.98
2019-03-22T06:18:55.226Z,36.65
2019-03-22T06:20:00.847Z,30.32
2019-03-22T06:21:06.422Z,34.13
2019-03-22T06:22:11.960Z,32.03
2019-03-22T06:23:17.587Z,25.05
2019-03-22T06:24:23.561Z,34.45
2019-03-22T06:25:29.191Z,24.57
2019-03-22T06:26:34.855Z,32.45
2019-03-22T06:27:40.712Z,31.15
2019-03-22T06:28:46.616Z,31.00
2019-03-22T06:29:54.363Z,33.45
2019-03-22T06:30:59.480Z,28.95
2019-03-22T06:32:05.252Z,26.42
2019-03-22T06:33:10.949Z,25.82
2019-03-22T06:34:17.296Z,26.40
2019-03-22T06:35:23.111Z,27.45
2019-03-22T06:36:29.062Z,29.85
2019-03-22T06:37:35.092Z,28.20
2019-03-22T06:38:41.011Z,31.62
2019-03-22T06:39:46.598Z,39.03
2019-03-22T06:40:52.277Z,30.82
2019-03-22T06:41:57.975Z,26.35
2019-03-22T06:43:03.572Z,31.45
2019-03-22T06:44:09.590Z,34.80
2019-03-22T06:45:15.208Z,23.20
2019-03-22T06:46:20.891Z,27.30
2019-03-22T06:47:26.638Z,27.82
2019-03-22T06:48:32.589Z,37.28
2019-03-22T06:49:38.498Z,28.70
2019-03-22T06:50:44.111Z,30.02
2019-03-22T06:51:50.191Z,28.73
2019-03-22T06:52:55.980Z,32.65
2019-03-22T06:54:02.143Z,28.52
2019-03-22T06:55:08.843Z,27.32
2019-03-22T06:56:14.537Z,30.70
2019-03-22T06:57:20.581Z,31.07
2019-03-22T06:58:26.552Z,33.90
2019-03-22T06:59:32.333Z,29.35
2019-03-22T07:00:37.941Z,30.40
2019-03-22T07:01:43.994Z,33.42
2019-03-22T07:02:49.823Z,33.38
2019-03-22T07:03:55.526Z,26.12
2019-03-22T07:05:01.431Z,28.65
2019-03-22T07:06:07.087Z,27.77
2019-03-22T07:07:12.677Z,27.13
2019-03-22T07:08:18.809Z,26.57
2019-03-22T07:09:24.666Z,25.60
2019-03-22T07:10:30.757Z,25.35
2019-03-22T07:11:36.267Z,24.02
2019-03-22T07:12:41.948Z,23.65
2019-03-22T07:13:47.538Z,28.27
2019-03-22T07:14:53.418Z,29.07
2019-03-22T07:15:59.143Z,24.05
2019-03-22T07:17:04.765Z,24.72
2019-03-22T07:18:10.562Z,28.45
2019-03-22T07:19:16.251Z,25.95
2019-03-22T07:20:22.366Z,24.02
2019-03-22T07:21:28.425Z,26.90
2019-03-22T07:22:34.330Z,26.57
2019-03-22T07:23:40.067Z,23.62
2019-03-22T07:24:46.170Z,35.95
2019-03-22T07:25:51.914Z,23.38
2019-03-22T07:26:57.782Z,25.52
2019-03-22T07:28:03.698Z,24.40
2019-03-22T07:29:09.592Z,23.07
2019-03-22T07:30:18.828Z,29.50
2019-03-22T07:31:23.515Z,29.10
2019-03-22T07:32:29.306Z,23.95
2019-03-22T07:33:35.221Z,26.27
2019-03-22T07:34:40.841Z,23.95
2019-03-22T07:35:46.527Z,32.98
2019-03-22T07:36:52.497Z,28.30
2019-03-22T07:37:58.306Z,24.32
2019-03-22T07:39:05.729Z,30.52
2019-03-22T07:40:11.959Z,32.42
2019-03-22T07:41:17.737Z,23.27
2019-03-22T07:42:23.574Z,24.10
2019-03-22T07:43:29.669Z,35.03
2019-03-22T07:44:35.353Z,26.37
2019-03-22T07:45:41.263Z,32.75
2019-03-22T07:46:46.955Z,30.35
2019-03-22T07:47:52.637Z,28.80
2019-03-22T07:48:58.559Z,24.60
2019-03-22T07:50:04.821Z,22.00
2019-03-22T07:51:10.680Z,28.12
2019-03-22T07:52:16.636Z,30.08
2019-03-22T07:53:22.591Z,34.53
2019-03-22T07:54:28.211Z,30.20
2019-03-22T07:55:33.816Z,31.48
2019-03-22T07:56:39.638Z,37.38
2019-03-22T07:57:45.288Z,28.80
2019-03-22T07:58:51.192Z,29.35
2019-03-22T07:59:56.831Z,32.78
2019-03-22T08:01:02.424Z,35.83
2019-03-22T08:02:08.621Z,30.37
2019-03-22T08:03:14.255Z,32.42
2019-03-22T08:04:19.927Z,30.02
2019-03-22T08:05:25.901Z,33.58
2019-03-22T08:06:31.888Z,38.35
2019-03-22T08:07:37.462Z,29.77
2019-03-22T08:08:43.171Z,36.20
2019-03-22T08:09:51.250Z,42.95
2019-03-22T08:10:56.833Z,33.75
2019-03-22T08:12:02.680Z,32.83
2019-03-22T08:13:08.625Z,28.62
2019-03-22T08:14:16.406Z,38.83
2019-03-22T08:15:32.681Z,36.08
2019-03-22T08:16:38.346Z,33.80
2019-03-22T08:17:44.355Z,36.33
2019-03-22T08:18:50.037Z,32.65
2019-03-22T08:19:57.255Z,46.45
2019-03-22T08:21:03.176Z,29.52
2019-03-22T08:22:08.743Z,26.95
2019-03-22T08:23:22.322Z,27.73
2019-03-22T08:24:28.090Z,34.85
2019-03-22T08:25:34.162Z,35.70
2019-03-22T08:26:40.136Z,29.67
2019-03-22T08:27:45.969Z,36.30
2019-03-22T08:28:51.547Z,36.80
2019-03-22T08:29:57.171Z,35.65
2019-03-22T08:31:05.415Z,31.70
2019-03-22T08:32:10.140Z,30.85
2019-03-22T08:33:16.049Z,32.10
2019-03-22T08:34:21.666Z,31.50
2019-03-22T08:35:27.389Z,30.77
2019-03-22T08:36:33.141Z,24.25
2019-03-22T08:37:38.798Z,29.77
2019-03-22T08:38:44.565Z,24.43
2019-03-22T08:39:50.357Z,31.90
2019-03-22T08:40:55.934Z,24.95
2019-03-22T08:42:01.568Z,21.37
2019-03-22T08:43:07.507Z,34.03
2019-03-22T08:44:13.109Z,26.80
2019-03-22T08:45:18.788Z,29.92
2019-03-22T08:46:25.255Z,38.88
2019-03-22T08:47:34.161Z,31.45
2019-03-22T08:48:38.302Z,27.62
2019-03-22T08:49:44.130Z,38.75
2019-03-22T08:50:50.243Z,32.50
2019-03-22T08:51:55.813Z,28.80
2019-03-22T08:53:01.548Z,27.80
2019-03-22T08:54:07.467Z,28.52
2019-03-22T08:55:13.208Z,25.77
2019-03-22T08:56:18.822Z,29.50
2019-03-22T08:57:25.199Z,29.27
2019-03-22T08:58:30.959Z,34.65
2019-03-22T08:59:36.848Z,41.10
2019-03-22T09:00:56.398Z,36.30
2019-03-22T09:01:51.445Z,26.10
2019-03-22T09:02:57.224Z,30.97
2019-03-22T09:04:02.860Z,38.67
2019-03-22T09:05:09.541Z,34.63
2019-03-22T09:06:15.109Z,28.77
2019-03-22T09:07:20.776Z,34.15
2019-03-22T09:08:26.588Z,30.15
2019-03-22T09:09:41.502Z,24.12
2019-03-22T09:10:40.042Z,27.85
2019-03-22T09:11:46.053Z,22.27
2019-03-22T09:12:52.531Z,22.98
2019-03-22T09:13:58.987Z,30.00
2019-03-22T09:15:05.108Z,25.50
2019-03-22T09:16:11.058Z,24.55
2019-03-22T09:17:16.665Z,25.85
2019-03-22T09:18:22.274Z,26.85
2019-03-22T09:19:27.893Z,24.98
2019-03-22T09:20:33.929Z,33.50
2019-03-22T09:21:39.619Z,26.55
2019-03-22T09:22:46.006Z,28.62
2019-03-22T09:23:51.730Z,27.37
2019-03-22T09:24:57.628Z,26.27
2019-03-22T09:26:03.472Z,26.23
2019-03-22T09:27:09.088Z,25.55
2019-03-22T09:28:15.134Z,32.73
2019-03-22T09:29:21.215Z,32.85
2019-03-22T09:30:27.040Z,25.85
2019-03-22T09:31:33.375Z,23.95
2019-03-22T09:32:39.245Z,35.33
2019-03-22T09:33:45.095Z,33.55
2019-03-22T09:34:51.085Z,27.35
2019-03-22T09:35:56.711Z,29.40
2019-03-22T09:37:02.600Z,37.60
2019-03-22T09:38:13.170Z,44.75
2019-03-22T09:39:16.207Z,33.08
2019-03-22T09:40:22.396Z,25.65
2019-03-22T09:41:28.465Z,25.50
2019-03-22T09:42:34.160Z,30.77
2019-03-22T09:43:39.901Z,21.02
2019-03-22T09:44:45.899Z,24.67
2019-03-22T09:45:52.363Z,21.05
2019-03-22T09:46:58.102Z,26.30
2019-03-22T09:48:06.112Z,25.52
2019-03-22T09:49:11.893Z,25.72
2019-03-22T09:50:17.688Z,21.23
2019-03-22T09:51:23.463Z,18.50
2019-03-22T09:52:29.531Z,20.20
2019-03-22T09:53:35.237Z,21.15
2019-03-22T09:54:41.504Z,23.38
2019-03-22T09:55:47.570Z,23.00
2019-03-22T09:56:53.345Z,17.30
2019-03-22T09:57:59.044Z,19.10
2019-03-22T09:59:04.993Z,22.62
2019-03-22T10:00:13.660Z,31.75
2019-03-22T10:01:23.919Z,31.27
2019-03-22T10:02:27.436Z,20.35
2019-03-22T10:03:33.153Z,25.57
2019-03-22T10:04:38.862Z,20.62
2019-03-22T10:05:45.326Z,19.98
2019-03-22T10:06:51.272Z,21.12
2019-03-22T10:07:57.278Z,28.67
2019-03-22T10:09:05.396Z,22.77
2019-03-22T10:10:10.975Z,20.43
2019-03-22T10:11:17.242Z,24.90
2019-03-22T10:12:23.293Z,23.70
2019-03-22T10:13:29.123Z,22.55
2019-03-22T10:14:34.966Z,22.15
2019-03-22T10:15:47.004Z,22.40
2019-03-22T10:16:52.769Z,18.55
2019-03-22T10:17:58.494Z,24.30
2019-03-22T10:19:04.254Z,24.70
2019-03-22T10:20:13.662Z,22.67
2019-03-22T10:21:22.750Z,23.27
2019-03-22T10:22:27.194Z,27.32
2019-03-22T10:23:32.889Z,33.02
2019-03-22T10:24:44.316Z,31.73
2019-03-22T10:25:50.165Z,29.90
2019-03-22T10:26:55.833Z,32.08
2019-03-22T10:28:02.283Z,24.98
2019-03-22T10:29:08.157Z,28.05
2019-03-22T10:30:14.329Z,21.75
2019-03-22T10:31:20.156Z,23.95
2019-03-22T10:32:25.797Z,27.93
2019-03-22T10:33:31.624Z,34.23
2019-03-22T10:34:39.747Z,27.17
2019-03-22T10:35:44.944Z,28.70
2019-03-22T10:36:50.736Z,28.90
2019-03-22T10:38:00.845Z,24.55
2019-03-22T10:39:06.703Z,22.93
2019-03-22T10:40:12.794Z,23.40
2019-03-22T10:41:18.865Z,23.55
2019-03-22T10:42:28.047Z,29.15
2019-03-22T10:43:33.695Z,28.50
2019-03-22T10:44:39.781Z,37.55
2019-03-22T10:45:45.514Z,59.60
2019-03-22T10:46:51.223Z,55.50
2019-03-22T10:47:56.886Z,26.97
2019-03-22T10:49:02.805Z,28.65
2019-03-22T10:50:09.176Z,27.55
2019-03-22T10:51:14.974Z,43.15
2019-03-22T10:52:20.731Z,34.33
2019-03-22T10:53:26.676Z,25.45
2019-03-22T10:54:32.439Z,33.38
2019-03-22T10:55:38.087Z,28.52
2019-03-22T10:56:44.168Z,27.20
2019-03-22T10:57:50.664Z,32.15
2019-03-22T10:58:56.718Z,26.20
2019-03-22T11:00:02.299Z,29.18
2019-03-22T11:01:08.775Z,23.98
2019-03-22T11:02:14.992Z,27.90
2019-03-22T11:03:20.778Z,24.00
2019-03-22T11:04:26.680Z,29.60
2019-03-22T11:05:32.770Z,32.90
2019-03-22T11:06:38.538Z,34.92
2019-03-22T11:07:44.452Z,34.33
2019-03-22T11:08:50.925Z,29.40
2019-03-22T11:09:57.015Z,35.03
2019-03-22T11:11:02.793Z,28.40
2019-03-22T11:12:12.542Z,29.60
2019-03-22T11:13:19.034Z,23.00
2019-03-22T11:14:24.760Z,24.27
2019-03-22T11:15:30.452Z,24.40
2019-03-22T11:16:36.329Z,29.32
2019-03-22T11:17:42.498Z,28.10
2019-03-22T11:18:48.356Z,30.45
2019-03-22T11:19:54.040Z,28.45
2019-03-22T11:21:05.183Z,30.08
2019-03-22T11:22:07.728Z,32.65
2019-03-22T11:23:13.605Z,26.77
2019-03-22T11:24:19.614Z,22.98
2019-03-22T11:25:25.288Z,22.48
2019-03-22T11:26:31.251Z,31.05
2019-03-22T11:27:37.211Z,25.90
2019-03-22T11:28:43.235Z,28.30
2019-03-22T11:29:48.902Z,27.52
2019-03-22T11:31:01.123Z,26.27
2019-03-22T11:32:12.069Z,27.07
2019-03-22T11:33:09.925Z,32.83
2019-03-22T11:34:15.694Z,29.90
2019-03-22T11:35:21.316Z,27.10
2019-03-22T11:36:27.061Z,32.40
2019-03-22T11:37:32.809Z,26.85
2019-03-22T11:38:38.460Z,23.77
2019-03-22T11:39:43.986Z,23.07
2019-03-22T11:40:49.667Z,40.08
2019-03-22T11:41:55.628Z,31.45
2019-03-22T11:43:08.550Z,24.45
2019-03-22T11:44:09.030Z,37.60
2019-03-22T11:45:17.160Z,19.67
2019-03-22T11:46:22.862Z,23.07
2019-03-22T11:47:28.711Z,22.17
2019-03-22T11:48:34.758Z,27.37
2019-03-22T11:49:40.418Z,23.77
2019-03-22T11:50:49.873Z,24.92
2019-03-22T11:51:55.681Z,27.93
2019-03-22T11:53:01.725Z,24.43
2019-03-22T11:54:07.618Z,19.57
2019-03-22T11:55:14.235Z,19.50
2019-03-22T11:56:19.903Z,22.17
2019-03-22T11:57:25.662Z,34.83
2019-03-22T11:58:31.364Z,19.75
2019-03-22T11:59:37.431Z,19.82
2019-03-22T12:00:43.457Z,15.75
2019-03-22T12:01:49.582Z,23.40
2019-03-22T12:02:55.831Z,24.90
2019-03-22T12:04:01.548Z,21.97
2019-03-22T12:05:07.817Z,22.55
2019-03-22T12:06:13.772Z,17.42
2019-03-22T12:07:19.984Z,30.23
2019-03-22T12:08:25.826Z,22.42
2019-03-22T12:09:31.585Z,20.25
2019-03-22T12:10:37.246Z,25.95
2019-03-22T12:11:42.893Z,24.00
2019-03-22T12:12:49.079Z,18.87
2019-03-22T12:13:54.737Z,25.50
2019-03-22T12:15:00.454Z,17.67
2019-03-22T12:16:06.245Z,22.93
2019-03-22T12:17:11.859Z,15.43
2019-03-22T12:18:18.372Z,21.33
2019-03-22T12:19:24.365Z,22.62
2019-03-22T12:20:30.000Z,27.67
2019-03-22T12:21:35.990Z,17.15
2019-03-22T12:22:42.387Z,15.83
2019-03-22T12:23:48.528Z,21.50
2019-03-22T12:24:54.258Z,23.83
2019-03-22T12:26:00.345Z,23.15
2019-03-22T12:27:06.203Z,16.07
2019-03-22T12:28:11.835Z,24.40
2019-03-22T12:29:17.635Z,22.67
2019-03-22T12:30:23.303Z,76.28
2019-03-22T12:31:29.559Z,39.50
2019-03-22T12:32:35.910Z,26.37
2019-03-22T12:33:42.270Z,32.42
2019-03-22T12:34:48.375Z,20.23
2019-03-22T12:35:54.394Z,19.30
2019-03-22T12:37:00.160Z,16.77
2019-03-22T12:38:05.985Z,19.60
2019-03-22T12:39:11.954Z,36.17
2019-03-22T12:40:18.676Z,25.77
2019-03-22T12:41:24.915Z,18.00
2019-03-22T12:42:30.919Z,17.50
2019-03-22T12:43:36.959Z,18.87
2019-03-22T12:44:42.697Z,23.22
2019-03-22T12:45:48.371Z,22.75
2019-03-22T12:46:53.983Z,17.73
2019-03-22T12:47:59.654Z,17.62
2019-03-22T12:49:05.767Z,19.80
2019-03-22T12:50:11.795Z,25.68
2019-03-22T12:51:17.393Z,33.38
2019-03-22T12:52:23.552Z,21.48
2019-03-22T12:53:29.250Z,22.75
2019-03-22T12:54:35.195Z,21.27
2019-03-22T12:55:40.864Z,30.75
2019-03-22T12:56:46.900Z,31.70
2019-03-22T12:57:53.220Z,28.15
2019-03-22T12:58:58.878Z,21.37
2019-03-22T13:00:05.746Z,22.07
2019-03-22T13:01:11.455Z,43.13
2019-03-22T13:02:17.496Z,17.90
2019-03-22T13:03:24.365Z,17.02
2019-03-22T13:04:30.182Z,33.33
2019-03-22T13:05:36.041Z,29.77
2019-03-22T13:06:41.711Z,23.35
2019-03-22T13:07:47.436Z,23.32
2019-03-22T13:08:53.549Z,41.30
2019-03-22T13:09:59.351Z,23.92
2019-03-22T13:11:05.056Z,21.95
2019-03-22T13:12:11.543Z,24.55
2019-03-22T13:13:17.332Z,24.85
2019-03-22T13:14:24.468Z,15.18
2019-03-22T13:15:30.186Z,24.82
2019-03-22T13:16:36.014Z,12.58
2019-03-22T13:17:41.779Z,12.68
2019-03-22T13:18:50.424Z,12.50
2019-03-22T13:19:54.966Z,14.03
2019-03-22T13:21:00.590Z,14.78
2019-03-22T13:22:06.413Z,16.93
2019-03-22T13:23:12.071Z,14.03
2019-03-22T13:24:18.100Z,17.35
2019-03-22T13:25:23.863Z,18.45
2019-03-22T13:26:29.874Z,17.40
2019-03-22T13:27:35.667Z,13.00
2019-03-22T13:28:41.361Z,14.75
2019-03-22T13:29:47.186Z,14.40
2019-03-22T13:30:52.958Z,16.95
2019-03-22T13:31:59.010Z,11.43
2019-03-22T13:33:05.234Z,15.95
2019-03-22T13:34:10.907Z,15.68
2019-03-22T13:35:16.682Z,16.27
2019-03-22T13:36:23.525Z,15.23
2019-03-22T13:37:29.479Z,9.05
2019-03-22T13:38:35.212Z,16.17
2019-03-22T13:39:41.046Z,10.60
2019-03-22T13:40:46.781Z,7.80
2019-03-22T13:41:52.483Z,5.60
2019-03-22T13:42:58.256Z,18.62
2019-03-22T13:44:04.373Z,9.05
2019-03-22T13:45:10.181Z,8.43
2019-03-22T13:46:16.155Z,5.90
2019-03-22T13:47:21.984Z,6.85
2019-03-22T13:48:27.643Z,11.38
2019-03-22T13:49:33.368Z,13.58
2019-03-22T13:50:39.028Z,8.70
2019-03-22T13:51:44.743Z,7.78
2019-03-22T13:52:50.483Z,9.63
2019-03-22T13:53:56.549Z,12.30
2019-03-22T13:55:02.225Z,17.70
2019-03-22T13:56:07.987Z,38.28
2019-03-22T13:57:13.694Z,10.28
2019-03-22T13:58:19.765Z,16.20
2019-03-22T13:59:25.500Z,8.55
2019-03-22T14:00:31.306Z,7.15
2019-03-22T14:01:37.165Z,11.05
2019-03-22T14:02:42.829Z,13.05
2019-03-22T14:03:48.438Z,10.03
2019-03-22T14:04:54.127Z,14.33
2019-03-22T14:05:59.878Z,8.20
2019-03-22T14:07:05.619Z,7.35
2019-03-22T14:08:11.510Z,10.13
2019-03-22T14:09:17.104Z,9.38
2019-03-22T14:10:30.962Z,5.75
2019-03-22T14:11:37.140Z,15.00
2019-03-22T14:12:42.990Z,10.45
2019-03-22T14:13:48.722Z,10.32